createdAt,value
2023-01-21T00:01:07.679Z,101380.81
2023-01-21T00:03:33.953Z,101376.31
2023-01-21T00:06:00.231Z,101375.34
2023-01-21T00:08:26.451Z,101380.81
2023-01-21T00:10:52.712Z,101385.88
2023-01-21T00:13:18.932Z,101379.91
2023-01-21T00:15:45.233Z,101395.03
2023-01-21T00:18:11.497Z,101394.22
2023-01-21T00:20:37.722Z,101389.75
2023-01-21T00:23:04.019Z,101393.25
2023-01-21T00:25:30.240Z,101404.72
2023-01-21T00:27:56.471Z,101406.09
2023-01-21T00:30:22.692Z,101407.34
2023-01-21T00:32:48.908Z,101409.06
2023-01-21T00:35:15.108Z,101404.91
2023-01-21T00:37:41.334Z,101404.63
2023-01-21T00:40:07.901Z,101408.94
2023-01-21T00:42:34.128Z,101403.81
2023-01-21T00:45:00.394Z,101408.47
2023-01-21T00:47:27.565Z,101415.31
2023-01-21T00:49:53.767Z,101413.56
2023-01-21T00:52:19.983Z,101421.09
2023-01-21T00:54:46.193Z,101418.69
2023-01-21T00:57:12.405Z,101430.31
2023-01-21T00:59:38.615Z,101432.34
2023-01-21T01:02:04.839Z,101432.06
2023-01-21T01:04:31.054Z,101431.09
2023-01-21T01:06:57.281Z,101437.69
2023-01-21T01:09:23.497Z,101435.19
2023-01-21T01:11:49.737Z,101442.91
2023-01-21T01:14:15.952Z,101445.47
2023-01-21T01:16:42.171Z,101438.41
2023-01-21T01:19:08.868Z,101447.06
2023-01-21T01:21:35.094Z,101451.91
2023-01-21T01:24:01.302Z,101446.50
2023-01-21T01:26:27.540Z,101461.09
2023-01-21T01:28:53.747Z,101463.69
2023-01-21T01:31:20.147Z,101476.38
2023-01-21T01:33:46.457Z,101476.53
2023-01-21T01:36:14.071Z,101492.91
2023-01-21T01:38:40.324Z,101490.28
2023-01-21T01:41:06.574Z,101482.22
2023-01-21T01:43:49.417Z,101489.81
2023-01-21T01:46:15.669Z,101485.69
2023-01-21T01:48:42.498Z,101494.00
2023-01-21T01:51:08.761Z,101504.78
2023-01-21T01:53:35.511Z,101500.97
2023-01-21T01:56:01.726Z,101502.56
2023-01-21T01:58:28.071Z,101494.22
2023-01-21T02:00:54.304Z,101492.25
2023-01-21T02:03:20.543Z,101507.81
2023-01-21T02:05:46.756Z,101497.97
2023-01-21T02:08:12.990Z,101496.56
2023-01-21T02:10:39.212Z,101506.53
2023-01-21T02:13:05.435Z,101510.44
2023-01-21T02:15:40.902Z,101509.34
2023-01-21T02:18:10.906Z,101517.41
2023-01-21T02:20:37.063Z,101515.00
2023-01-21T02:23:21.872Z,101524.31
2023-01-21T02:25:55.565Z,101524.88
2023-01-21T02:28:26.979Z,101524.38
2023-01-21T02:31:01.315Z,101516.78
2023-01-21T02:33:31.414Z,101519.47
2023-01-21T02:35:59.848Z,101528.84
2023-01-21T02:38:29.140Z,101516.00
2023-01-21T02:40:58.435Z,101523.72
2023-01-21T02:43:24.622Z,101532.72
2023-01-21T02:45:55.265Z,101535.41
2023-01-21T02:48:24.494Z,101535.75
2023-01-21T02:50:50.988Z,101529.00
2023-01-21T02:53:20.240Z,101534.38
2023-01-21T02:55:46.455Z,101546.50
2023-01-21T02:58:14.106Z,101551.63
2023-01-21T03:00:59.002Z,101553.66
2023-01-21T03:03:30.015Z,101552.59
2023-01-21T03:05:56.195Z,101559.16
2023-01-21T03:08:22.737Z,101560.75
2023-01-21T03:10:50.719Z,101557.72
2023-01-21T03:13:30.960Z,101562.47
2023-01-21T03:15:57.212Z,101559.75
2023-01-21T03:18:28.313Z,101558.88
2023-01-21T03:21:07.294Z,101564.16
2023-01-21T03:23:34.677Z,101561.50
2023-01-21T03:26:00.892Z,101566.50
2023-01-21T03:28:27.737Z,101569.88
2023-01-21T03:30:55.342Z,101575.00
2023-01-21T03:33:21.565Z,101577.72
2023-01-21T03:35:47.873Z,101582.63
2023-01-21T03:38:31.275Z,101587.91
2023-01-21T03:41:05.421Z,101595.75
2023-01-21T03:43:31.635Z,101592.84
2023-01-21T03:46:03.882Z,101593.22
2023-01-21T03:48:38.959Z,101596.59
2023-01-21T03:51:06.442Z,101603.94
2023-01-21T03:53:32.679Z,101598.13
2023-01-21T03:55:58.882Z,101611.41
2023-01-21T03:58:25.245Z,101609.09
2023-01-21T04:00:51.492Z,101613.56
2023-01-21T04:03:17.701Z,101626.69
2023-01-21T04:05:43.947Z,101624.34
2023-01-21T04:08:10.168Z,101625.56
2023-01-21T04:10:36.389Z,101636.00
2023-01-21T04:13:02.605Z,101635.59
2023-01-21T04:15:28.832Z,101643.34
2023-01-21T04:17:55.060Z,101656.56
2023-01-21T04:20:21.288Z,101650.59
2023-01-21T04:22:47.494Z,101651.16
2023-01-21T04:25:13.729Z,101650.06
2023-01-21T04:27:39.931Z,101650.06
2023-01-21T04:30:06.472Z,101651.00
2023-01-21T04:32:32.704Z,101663.03
2023-01-21T04:34:58.927Z,101668.28
2023-01-21T04:37:25.150Z,101667.19
2023-01-21T04:39:51.527Z,101669.78
2023-01-21T04:42:17.750Z,101670.72
2023-01-21T04:44:44.096Z,101684.63
2023-01-21T04:47:10.431Z,101683.00
2023-01-21T04:49:36.721Z,101693.91
2023-01-21T04:52:07.162Z,101706.19
2023-01-21T04:54:33.499Z,101712.03
2023-01-21T04:56:59.789Z,101700.13
2023-01-21T04:59:26.412Z,101706.88
2023-01-21T05:01:52.698Z,101699.34
2023-01-21T05:04:21.589Z,101712.28
2023-01-21T05:06:47.883Z,101714.72
2023-01-21T05:09:14.171Z,101714.88
2023-01-21T05:11:40.525Z,101718.88
2023-01-21T05:14:32.205Z,101728.84
2023-01-21T05:16:58.730Z,101722.72
2023-01-21T05:19:25.104Z,101734.53
2023-01-21T05:21:51.462Z,101731.16
2023-01-21T05:24:18.023Z,101750.59
2023-01-21T05:26:44.342Z,101751.69
2023-01-21T05:29:10.751Z,101754.78
2023-01-21T05:31:37.340Z,101765.28
2023-01-21T05:34:03.704Z,101768.25
2023-01-21T05:36:29.979Z,101780.66
2023-01-21T05:38:56.267Z,101767.84
2023-01-21T05:41:22.539Z,101771.66
2023-01-21T05:43:51.235Z,101780.59
2023-01-21T05:46:17.558Z,101779.75
2023-01-21T05:48:43.816Z,101777.84
2023-01-21T05:51:10.117Z,101778.00
2023-01-21T05:53:36.401Z,101784.19
2023-01-21T05:56:02.691Z,101788.94
2023-01-21T05:58:28.955Z,101796.47
2023-01-21T06:00:56.236Z,101795.44
2023-01-21T06:03:22.536Z,101798.13
2023-01-21T06:05:48.977Z,101784.91
2023-01-21T06:08:15.218Z,101787.06
2023-01-21T06:10:41.626Z,101779.22
2023-01-21T06:13:08.733Z,101782.72
2023-01-21T14:15:19.527Z,102057.50
2023-01-21T14:18:08.041Z,102061.50
2023-01-21T14:20:40.314Z,102065.78
2023-01-21T14:23:06.489Z,102063.66
2023-01-21T14:25:47.946Z,102067.19
2023-01-21T14:28:21.753Z,102076.06
2023-01-21T14:30:49.280Z,102093.34
2023-01-21T14:33:17.087Z,102094.47
2023-01-21T14:35:44.935Z,102100.44
2023-01-21T14:38:29.697Z,102101.03
2023-01-21T14:41:06.598Z,102105.75
2023-01-21T14:43:32.793Z,102098.81
2023-01-21T14:45:59.581Z,102100.44
2023-01-21T14:48:29.602Z,102108.59
2023-01-21T14:51:09.206Z,102105.91
2023-01-21T14:53:54.349Z,102102.16
2023-01-21T14:56:22.018Z,102101.03
2023-01-21T14:58:49.901Z,102088.13
2023-01-21T15:01:26.470Z,102102.34
2023-01-21T15:03:52.697Z,102099.56
2023-01-21T15:06:19.869Z,102101.50
2023-01-21T15:08:46.529Z,102101.50
2023-01-21T15:11:18.626Z,102091.97
2023-01-21T15:13:44.844Z,102081.50
2023-01-21T15:16:15.733Z,102061.03
2023-01-21T15:18:43.203Z,102047.69
2023-01-21T15:21:28.228Z,102025.44
2023-01-21T15:24:01.305Z,101998.31
2023-01-21T15:26:30.844Z,101967.06
2023-01-21T15:28:57.105Z,101944.81
2023-01-21T15:31:23.353Z,101935.31
2023-01-21T15:33:52.094Z,101924.50
2023-01-21T15:36:38.536Z,101917.25
2023-01-21T15:39:14.740Z,101919.34
2023-01-21T15:41:59.793Z,101914.19
2023-01-21T15:44:39.322Z,101915.16
2023-01-21T15:47:10.337Z,101898.06
2023-01-21T15:49:51.770Z,101906.75
2023-01-21T15:52:30.216Z,101910.97
2023-01-21T15:54:59.310Z,101918.69
2023-01-21T15:57:34.723Z,101929.97
2023-01-21T16:00:19.486Z,101938.66
2023-01-21T16:02:48.549Z,101947.00
2023-01-21T16:05:20.173Z,101963.91
2023-01-21T16:08:09.738Z,101963.13
2023-01-21T16:10:54.785Z,101969.06
2023-01-21T16:13:20.963Z,102004.81
2023-01-21T16:15:54.290Z,102026.56
2023-01-21T16:18:31.559Z,102034.81
2023-01-21T16:20:57.774Z,102017.72
2023-01-21T16:23:24.219Z,102024.66
2023-01-21T16:25:51.279Z,102010.13
2023-01-21T16:28:17.685Z,102023.19
2023-01-21T16:30:53.807Z,102024.13
2023-01-21T16:33:20.096Z,102039.47
2023-01-21T16:35:46.271Z,102034.59
2023-01-21T16:38:13.417Z,102041.88
2023-01-21T16:40:39.722Z,102036.22
2023-01-21T16:43:14.013Z,102038.28
2023-01-21T16:45:40.219Z,102040.03
2023-01-21T16:48:10.338Z,102032.44
2023-01-21T16:50:36.543Z,102016.16
2023-01-21T16:53:05.287Z,102015.03
2023-01-21T16:55:31.485Z,102005.53
2023-01-21T16:57:58.097Z,101988.47
2023-01-21T17:00:27.949Z,101971.22
2023-01-21T17:02:54.202Z,101972.47
2023-01-21T17:05:20.450Z,101962.81
2023-01-21T17:07:47.246Z,101939.47
2023-01-21T17:10:22.658Z,101930.69
2023-01-21T17:13:01.791Z,101947.59
2023-01-21T17:15:28.018Z,101969.16
2023-01-21T17:17:54.542Z,101989.78
2023-01-21T17:20:38.860Z,102009.88
2023-01-21T17:23:06.328Z,102031.47
2023-01-21T17:25:32.675Z,102040.00
2023-01-21T17:27:58.902Z,102054.50
2023-01-21T17:30:26.216Z,102049.75
2023-01-21T17:32:53.235Z,102049.50
2023-01-21T17:35:22.774Z,102054.09
2023-01-21T17:37:52.148Z,102064.41
2023-01-21T17:40:25.452Z,102065.22
2023-01-21T17:42:51.669Z,102047.88
2023-01-21T17:45:19.680Z,102042.72
2023-01-21T17:48:07.311Z,102035.00
2023-01-21T17:50:32.782Z,102032.69
2023-01-21T17:53:00.206Z,102032.41
2023-01-21T17:55:27.852Z,102010.31
2023-01-21T17:57:54.068Z,102022.22
2023-01-21T18:00:30.499Z,102009.34
2023-01-21T18:02:57.054Z,102015.31
2023-01-21T18:05:23.302Z,102011.25
2023-01-21T18:07:49.587Z,102022.78
2023-01-21T18:10:19.690Z,102004.72
2023-01-21T18:12:45.907Z,102015.03
2023-01-21T18:15:12.964Z,102018.03
2023-01-21T18:17:43.751Z,102034.84
2023-01-21T18:20:15.253Z,102042.72
2023-01-21T18:22:41.614Z,102067.53
2023-01-21T18:25:08.761Z,102082.84
2023-01-21T18:27:34.978Z,102101.84
2023-01-21T18:30:01.204Z,102120.25
2023-01-21T18:32:27.431Z,102124.00
2023-01-21T18:34:53.892Z,102136.53
2023-01-21T18:37:20.126Z,102164.72
2023-01-21T18:39:46.418Z,102158.78
2023-01-21T18:42:16.185Z,102148.25
2023-01-21T18:44:42.437Z,102115.81
2023-01-21T18:47:12.367Z,102102.25
2023-01-21T18:49:38.769Z,102081.22
2023-01-21T18:52:04.990Z,102059.13
2023-01-21T18:54:31.206Z,102050.88
2023-01-21T18:56:57.415Z,102048.59
2023-01-21T18:59:23.639Z,102058.41
2023-01-21T19:01:49.853Z,102073.06
2023-01-21T19:04:16.303Z,102102.06
2023-01-21T19:06:42.514Z,102123.13
2023-01-21T19:09:13.751Z,102124.19
2023-01-21T19:11:40.158Z,102133.03
2023-01-21T19:14:06.368Z,102153.63
2023-01-21T19:16:32.627Z,102165.00
2023-01-21T19:18:58.930Z,102167.84
2023-01-21T19:21:25.129Z,102192.78
2023-01-21T19:23:51.325Z,102201.63
2023-01-21T19:26:17.553Z,102207.31
2023-01-21T19:28:43.762Z,102215.16
2023-01-21T19:31:10.062Z,102221.44
2023-01-21T19:33:36.382Z,102247.72
2023-01-21T19:36:03.328Z,102235.94
2023-01-21T19:38:29.524Z,102235.53
2023-01-21T19:40:55.729Z,102223.19
2023-01-21T19:43:21.944Z,102232.41
2023-01-21T19:45:48.385Z,102205.69
2023-01-21T19:48:15.192Z,102175.56
2023-01-21T19:50:41.408Z,102144.66
2023-01-21T19:53:08.915Z,102122.16
2023-01-21T19:55:35.164Z,102095.72
2023-01-21T19:58:04.930Z,102079.72
2023-01-21T20:00:32.325Z,102077.16
2023-01-21T20:02:58.551Z,102091.25
2023-01-21T20:05:25.579Z,102095.72
2023-01-21T20:07:51.785Z,102118.91
2023-01-21T20:10:19.144Z,102145.91
2023-01-21T20:12:45.417Z,102184.53
2023-01-21T20:15:12.207Z,102209.50
2023-01-21T20:17:38.785Z,102239.47
2023-01-21T20:20:14.878Z,102260.75
2023-01-21T20:22:41.086Z,102262.78
2023-01-21T20:25:07.400Z,102285.69
2023-01-21T20:27:33.602Z,102307.69
2023-01-21T20:30:14.813Z,102304.53
2023-01-21T20:32:41.433Z,102328.97
2023-01-21T20:35:07.848Z,102316.88
2023-01-21T20:37:34.054Z,102330.06
2023-01-21T20:40:00.277Z,102342.78
2023-01-21T20:42:27.945Z,102349.44
2023-01-21T20:44:54.259Z,102366.66
2023-01-21T20:47:32.406Z,102382.94
2023-01-21T20:50:16.141Z,102385.50
2023-01-21T20:52:42.350Z,102397.28
2023-01-21T20:55:08.668Z,102410.00
2023-01-21T20:57:34.869Z,102423.56
2023-01-21T21:00:01.087Z,102430.34
2023-01-21T21:02:27.363Z,102428.06
2023-01-21T21:04:53.601Z,102437.13
2023-01-21T21:07:19.819Z,102442.56
2023-01-21T21:09:46.019Z,102444.88
2023-01-21T21:12:12.237Z,102448.25
2023-01-21T21:14:38.447Z,102434.03
2023-01-21T21:17:05.614Z,102432.41
2023-01-21T21:22:12.015Z,102428.06
2023-01-21T21:24:38.221Z,102409.50
2023-01-21T21:27:04.431Z,102406.34
2023-01-21T21:29:30.645Z,102409.88
2023-01-21T21:31:56.926Z,102400.38
2023-01-21T21:34:25.925Z,102384.09
2023-01-21T21:36:52.133Z,102387.50
2023-01-21T21:39:18.335Z,102391.97
2023-01-21T21:41:44.728Z,102385.19
2023-01-21T21:44:10.992Z,102383.28
2023-01-21T21:46:37.281Z,102383.16
2023-01-21T21:49:03.472Z,102378.94
2023-01-21T21:51:29.874Z,102375.84
2023-01-21T21:53:56.082Z,102390.22
2023-01-21T21:56:22.632Z,102396.84
2023-01-21T21:58:49.014Z,102390.22
2023-01-21T22:01:19.233Z,102399.56
2023-01-21T22:03:45.452Z,102403.78
2023-01-21T22:06:11.690Z,102389.41
2023-01-21T22:08:38.496Z,102401.06
2023-01-21T22:11:05.422Z,102401.19
2023-01-21T22:13:32.097Z,102418.97
2023-01-21T22:15:58.757Z,102414.75
2023-01-21T22:18:25.543Z,102411.38
2023-01-21T22:20:51.760Z,102417.19
2023-01-21T22:23:17.978Z,102411.50
2023-01-21T22:25:44.181Z,102414.22
2023-01-21T22:28:10.399Z,102415.16
2023-01-21T22:30:36.653Z,102410.94
2023-01-21T22:33:02.944Z,102417.72
2023-01-21T22:35:29.151Z,102427.38
2023-01-21T22:37:55.381Z,102432.13
2023-01-21T22:40:21.581Z,102428.19
2023-01-21T22:42:47.802Z,102431.84
2023-01-21T22:45:14.004Z,102436.47
2023-01-21T22:47:40.343Z,102427.13
2023-01-21T22:50:06.717Z,102429.41
2023-01-21T22:52:32.920Z,102424.78
2023-01-21T22:54:59.150Z,102406.88
2023-01-21T22:57:25.366Z,102418.69
2023-01-21T22:59:51.578Z,102417.06
2023-01-21T23:02:17.792Z,102409.81
2023-01-21T23:04:44.330Z,102413.53
2023-01-21T23:07:10.559Z,102405.78
2023-01-21T23:09:36.772Z,102416.09
2023-01-21T23:12:03.005Z,102408.22
2023-01-21T23:14:29.261Z,102398.72
2023-01-21T23:16:55.555Z,102402.88
2023-01-21T23:19:21.756Z,102408.88
2023-01-21T23:21:47.965Z,102407.56
2023-01-21T23:24:14.208Z,102406.47
2023-01-21T23:26:40.417Z,102398.97
2023-01-21T23:29:06.613Z,102392.44
2023-01-21T23:31:32.868Z,102398.97
2023-01-21T23:33:59.146Z,102391.38
2023-01-21T23:36:25.363Z,102381.72
2023-01-21T23:38:51.572Z,102368.84
2023-01-21T23:41:17.779Z,102382.53
2023-01-21T23:43:44.032Z,102370.31
2023-01-21T23:46:14.586Z,102371.66
2023-01-21T23:48:40.806Z,102363.25
2023-01-21T23:51:07.683Z,102373.03
2023-01-21T23:53:33.949Z,102363.78
2023-01-21T23:56:06.620Z,102356.72
2023-01-21T23:58:34.551Z,102354.41
